Time;durP1;ratioP1;P1;durP2;ratioP2;P2;SDS_P1;SDS_P2;PMS_P1;PMS_P2;Temp;Humidity;BMP_temperature;BMP_pressure;BME280_temperature;BME280_humidity;BME280_pressure;Samples;Min_cycle;Max_cycle;Signal;HPM_P1;HPM_P2
2021/04/22 00:02:28;;;;;;;22.70;16.88;;;12.80;64.50;;;;;;6213008;28;20082;-78
2021/04/22 00:05:31;;;;;;;23.05;17.27;;;12.70;64.30;;;;;;6204210;28;20077;-78
2021/04/22 00:08:33;;;;;;;19.35;16.58;;;12.60;64.60;;;;;;6202950;28;20129;-78
2021/04/22 00:11:35;;;;;;;22.00;18.33;;;12.50;64.70;;;;;;6203265;28;20562;-78
2021/04/22 00:14:37;;;;;;;27.20;17.38;;;12.50;64.70;;;;;;6204130;28;20077;-79
2021/04/22 00:17:38;;;;;;;27.50;19.20;;;12.50;65.00;;;;;;6205769;28;20137;-79
2021/04/22 00:20:40;;;;;;;35.17;21.27;;;12.50;64.90;;;;;;6208828;28;20583;-79
2021/04/22 00:23:42;;;;;;;27.08;20.35;;;12.40;64.50;;;;;;6206902;28;20149;-79
2021/04/22 00:26:43;;;;;;;27.80;21.40;;;12.40;64.20;;;;;;6206027;28;20052;-79
2021/04/22 00:29:45;;;;;;;26.70;18.98;;;12.40;64.30;;;;;;6207963;28;20051;-79
2021/04/22 00:32:46;;;;;;;29.30;21.25;;;12.40;64.20;;;;;;6207476;28;20531;-79
2021/04/22 00:35:48;;;;;;;23.95;20.08;;;12.50;64.40;;;;;;6208165;28;20042;-79
2021/04/22 00:38:50;;;;;;;28.67;21.35;;;12.40;64.20;;;;;;6206980;28;20589;-79
2021/04/22 00:41:51;;;;;;;26.90;20.20;;;12.50;64.30;;;;;;6206451;28;20077;-79
2021/04/22 00:44:53;;;;;;;26.33;19.85;;;12.40;64.40;;;;;;6205440;28;20050;-77
2021/04/22 00:47:54;;;;;;;26.55;20.05;;;12.40;64.50;;;;;;6205874;28;20074;-79
2021/04/22 00:50:57;;;;;;;31.30;21.55;;;12.40;64.70;;;;;;6204898;28;20050;-78
2021/04/22 00:53:59;;;;;;;27.77;22.48;;;12.40;65.00;;;;;;6204433;28;20203;-78
2021/04/22 00:57:00;;;;;;;28.80;21.80;;;12.30;65.10;;;;;;6202648;28;20038;-79
2021/04/22 01:00:03;;;;;;;27.90;20.08;;;12.30;65.40;;;;;;6207559;28;20051;-79
2021/04/22 01:03:05;;;;;;;24.45;21.02;;;12.20;65.70;;;;;;6207030;28;20078;-78
2021/04/22 01:06:08;;;;;;;26.33;21.42;;;12.20;65.90;;;;;;6205129;28;20092;-79
2021/04/22 01:09:14;;;;;;;27.75;19.80;;;12.20;66.00;;;;;;6210197;28;20072;-79
2021/04/22 01:12:15;;;;;;;22.85;19.92;;;12.20;66.20;;;;;;6206838;28;20147;-79
2021/04/22 01:15:19;;;;;;;25.50;21.63;;;12.20;66.20;;;;;;6208573;28;20643;-79
2021/04/22 01:18:21;;;;;;;30.52;20.67;;;12.20;66.30;;;;;;6206133;28;20121;-79
2021/04/22 01:21:25;;;;;;;28.27;21.13;;;12.20;66.30;;;;;;6207401;28;20113;-79
2021/04/22 01:24:26;;;;;;;29.00;21.42;;;12.20;66.50;;;;;;6208338;28;20047;-79
2021/04/22 01:27:28;;;;;;;25.08;19.45;;;12.20;66.70;;;;;;6206806;28;20057;-79
2021/04/22 01:30:33;;;;;;;29.02;22.35;;;12.10;67.00;;;;;;6208101;28;20493;-78
2021/04/22 01:33:34;;;;;;;24.75;20.27;;;12.10;67.50;;;;;;6206622;28;20081;-79
2021/04/22 01:36:39;;;;;;;24.27;19.80;;;12.00;68.10;;;;;;6206377;28;20046;-78
2021/04/22 01:39:40;;;;;;;26.15;20.58;;;12.00;67.90;;;;;;6207966;28;20053;-79
2021/04/22 01:42:42;;;;;;;25.48;19.42;;;12.00;68.40;;;;;;6209647;28;20108;-79
2021/04/22 01:45:43;;;;;;;27.25;20.35;;;11.90;68.60;;;;;;6208194;28;20042;-77
2021/04/22 01:48:45;;;;;;;25.98;20.58;;;11.90;68.90;;;;;;6207103;28;20066;-79
2021/04/22 01:51:47;;;;;;;30.20;22.80;;;11.80;69.10;;;;;;6206394;28;20077;-79
2021/04/22 01:54:48;;;;;;;29.10;21.70;;;11.80;69.60;;;;;;6206333;28;20054;-78
2021/04/22 01:57:50;;;;;;;24.77;20.55;;;11.70;69.80;;;;;;6204414;28;20129;-79
2021/04/22 02:00:54;;;;;;;30.98;22.20;;;11.70;70.50;;;;;;6206789;28;20056;-79
2021/04/22 02:03:55;;;;;;;30.20;24.25;;;11.60;70.30;;;;;;6206316;28;20050;-79
2021/04/22 02:06:57;;;;;;;27.73;22.40;;;11.60;70.60;;;;;;6206325;28;20136;-79
2021/04/22 02:09:59;;;;;;;31.48;24.25;;;11.50;70.80;;;;;;6205822;28;20567;-79
2021/04/22 02:13:00;;;;;;;28.70;21.90;;;11.40;71.00;;;;;;6205355;28;20073;-79
2021/04/22 02:16:02;;;;;;;31.08;22.60;;;11.40;71.30;;;;;;6207103;28;20042;-79
2021/04/22 02:19:03;;;;;;;32.53;24.38;;;11.30;71.70;;;;;;6207704;28;20085;-79
2021/04/22 02:22:06;;;;;;;31.77;22.67;;;11.20;71.80;;;;;;6202071;28;20051;-79
2021/04/22 02:25:11;;;;;;;30.00;22.83;;;11.10;72.70;;;;;;6205172;28;20097;-79
2021/04/22 02:28:12;;;;;;;31.38;22.02;;;11.10;72.50;;;;;;6206160;28;20065;-79
2021/04/22 02:31:14;;;;;;;32.08;25.02;;;11.00;72.80;;;;;;6205802;28;20140;-79
2021/04/22 02:34:15;;;;;;;32.28;24.20;;;11.00;72.90;;;;;;6207513;28;20527;-79
2021/04/22 02:37:17;;;;;;;30.45;22.95;;;11.00;73.10;;;;;;6206708;28;20120;-78
2021/04/22 02:40:22;;;;;;;30.77;24.75;;;11.00;73.20;;;;;;6207439;28;20042;-78
2021/04/22 02:43:24;;;;;;;34.90;24.33;;;11.00;73.30;;;;;;6204331;28;20046;-77
2021/04/22 02:46:25;;;;;;;35.72;23.80;;;11.00;73.60;;;;;;6201636;28;20050;-77
2021/04/22 02:49:27;;;;;;;44.33;23.13;;;10.90;73.70;;;;;;6202055;28;20069;-76
2021/04/22 02:52:29;;;;;;;30.42;24.23;;;10.90;73.80;;;;;;6201968;28;20074;-77
2021/04/22 02:55:30;;;;;;;26.48;22.45;;;10.90;74.10;;;;;;6201596;28;20651;-77
2021/04/22 02:58:31;;;;;;;31.95;23.23;;;10.80;74.40;;;;;;6202383;28;20133;-76
2021/04/22 03:01:34;;;;;;;29.48;23.23;;;10.80;74.70;;;;;;6201981;28;20046;-77
2021/04/22 03:04:35;;;;;;;31.90;22.83;;;10.70;74.80;;;;;;6201922;28;20047;-77
2021/04/22 03:07:37;;;;;;;29.30;21.90;;;10.60;74.90;;;;;;6201339;28;20042;-77
2021/04/22 03:10:39;;;;;;;28.88;22.45;;;10.60;75.20;;;;;;6202018;28;20493;-77
2021/04/22 03:13:41;;;;;;;27.98;22.50;;;10.50;75.50;;;;;;6202123;28;20046;-77
2021/04/22 03:16:42;;;;;;;27.17;21.40;;;10.50;75.80;;;;;;6201172;28;20587;-78
2021/04/22 03:19:43;;;;;;;32.13;23.92;;;10.40;76.30;;;;;;6202815;28;20559;-78
2021/04/22 03:22:46;;;;;;;30.65;22.02;;;10.30;77.10;;;;;;6203103;28;20395;-77
2021/04/22 03:25:47;;;;;;;39.70;26.10;;;10.20;76.80;;;;;;6200888;28;20129;-77
2021/04/22 03:28:48;;;;;;;33.53;24.08;;;10.10;77.20;;;;;;6201651;28;20042;-78
2021/04/22 03:31:50;;;;;;;30.73;23.70;;;10.10;78.10;;;;;;6201657;28;20065;-77
2021/04/22 03:34:51;;;;;;;31.83;23.80;;;10.00;77.70;;;;;;6203346;28;20152;-77
2021/04/22 03:37:54;;;;;;;32.78;21.65;;;9.90;77.90;;;;;;6201008;28;20530;-78
2021/04/22 03:40:55;;;;;;;30.98;21.60;;;10.00;78.20;;;;;;6201810;28;20128;-78
2021/04/22 03:43:57;;;;;;;32.08;23.27;;;9.90;78.50;;;;;;6201940;28;20508;-77
2021/04/22 03:46:58;;;;;;;31.45;22.55;;;9.80;78.80;;;;;;6201224;28;20078;-77
2021/04/22 03:49:59;;;;;;;33.65;22.92;;;9.70;79.10;;;;;;6201844;28;20135;-78
2021/04/22 03:53:01;;;;;;;33.00;21.70;;;9.60;79.50;;;;;;6201675;28;20073;-77
2021/04/22 03:56:03;;;;;;;26.70;20.42;;;9.60;79.80;;;;;;6201789;28;20035;-78
2021/04/22 03:59:05;;;;;;;27.50;20.27;;;9.60;79.90;;;;;;6202117;28;20097;-77
2021/04/22 04:02:06;;;;;;;36.20;21.60;;;9.50;80.30;;;;;;6203049;28;20073;-78
2021/04/22 04:05:09;;;;;;;28.33;21.02;;;9.50;80.40;;;;;;6201413;28;20081;-78
2021/04/22 04:08:11;;;;;;;30.27;22.83;;;9.40;80.70;;;;;;6202130;28;20052;-78
2021/04/22 04:11:13;;;;;;;37.13;24.10;;;9.30;80.90;;;;;;6201947;28;20065;-77
2021/04/22 04:14:14;;;;;;;31.50;21.27;;;9.20;81.20;;;;;;6201346;28;20129;-77
2021/04/22 04:17:16;;;;;;;30.27;20.30;;;9.20;81.60;;;;;;6202791;28;20518;-78
2021/04/22 04:20:18;;;;;;;30.88;20.88;;;9.10;81.80;;;;;;6203175;28;20178;-78
2021/04/22 04:23:20;;;;;;;29.55;20.63;;;9.00;82.10;;;;;;6202840;28;20054;-77
2021/04/22 04:26:21;;;;;;;28.95;19.92;;;9.00;82.50;;;;;;6202719;28;20070;-78
2021/04/22 04:29:22;;;;;;;34.83;20.80;;;9.00;82.40;;;;;;6203342;28;20054;-78
2021/04/22 04:32:24;;;;;;;23.83;18.92;;;9.00;82.40;;;;;;6202138;28;20050;-78
2021/04/22 04:35:26;;;;;;;19.88;16.60;;;8.90;82.30;;;;;;6203824;28;20129;-78
2021/04/22 04:38:28;;;;;;;24.25;17.92;;;9.00;82.30;;;;;;6204172;28;20046;-77
2021/04/22 04:41:30;;;;;;;23.75;17.60;;;9.00;82.20;;;;;;6203953;28;20077;-78
2021/04/22 04:44:31;;;;;;;28.75;17.08;;;9.00;82.00;;;;;;6203607;28;20054;-76
2021/04/22 04:47:33;;;;;;;25.52;15.68;;;9.00;82.10;;;;;;6198888;28;20108;-77
2021/04/22 04:50:34;;;;;;;25.45;17.40;;;9.00;81.80;;;;;;6199959;28;20137;-77
2021/04/22 04:53:36;;;;;;;22.70;16.63;;;9.00;81.70;;;;;;6199167;28;20512;-77
2021/04/22 04:56:37;;;;;;;21.88;15.50;;;9.00;81.80;;;;;;6198128;28;20129;-77
2021/04/22 04:59:39;;;;;;;22.45;14.10;;;9.00;81.70;;;;;;6198982;28;20124;-77
2021/04/22 05:02:40;;;;;;;24.63;14.77;;;9.10;80.90;;;;;;6199780;28;20051;-77
2021/04/22 05:05:41;;;;;;;18.98;14.13;;;9.10;80.60;;;;;;6198553;28;20141;-77
2021/04/22 05:08:44;;;;;;;19.55;12.82;;;9.20;80.40;;;;;;6199194;28;20096;-77
2021/04/22 05:11:45;;;;;;;21.88;14.40;;;9.30;80.10;;;;;;6199026;28;20178;-77
2021/04/22 05:14:46;;;;;;;19.90;12.60;;;9.40;79.60;;;;;;6199335;28;20136;-77
2021/04/22 05:17:47;;;;;;;19.83;11.80;;;9.40;78.40;;;;;;6197626;28;20138;-77
2021/04/22 05:20:49;;;;;;;21.73;11.90;;;9.50;78.00;;;;;;6199017;28;20074;-77
2021/04/22 05:23:51;;;;;;;18.55;11.38;;;9.50;77.90;;;;;;6198946;28;20047;-77
2021/04/22 05:26:52;;;;;;;15.63;11.80;;;9.60;77.30;;;;;;6198434;28;20519;-77
2021/04/22 05:29:54;;;;;;;17.92;10.25;;;9.70;76.20;;;;;;6198915;28;20105;-77
2021/04/22 05:32:55;;;;;;;16.33;10.05;;;9.80;75.30;;;;;;6199194;28;20554;-77
2021/04/22 05:35:56;;;;;;;25.40;11.45;;;9.80;75.00;;;;;;6198290;28;20136;-78
2021/04/22 05:38:59;;;;;;;16.77;8.93;;;9.80;74.60;;;;;;6200559;28;20135;-77
2021/04/22 05:42:00;;;;;;;15.43;7.88;;;9.90;74.10;;;;;;6201067;28;20148;-78
2021/04/22 05:45:01;;;;;;;37.97;11.75;;;9.90;73.20;;;;;;6204327;28;20089;-78
2021/04/22 05:48:03;;;;;;;16.95;8.18;;;10.00;75.70;;;;;;6203410;28;20173;-78
2021/04/22 05:51:05;;;;;;;16.17;9.48;;;10.20;72.70;;;;;;6204679;28;20496;-77
2021/04/22 05:54:08;;;;;;;14.60;9.90;;;10.20;71.40;;;;;;6204412;28;20058;-78
2021/04/22 05:57:09;;;;;;;14.15;7.75;;;10.20;70.70;;;;;;6201536;28;20047;-78
2021/04/22 06:00:14;;;;;;;19.63;8.68;;;10.30;70.20;;;;;;6202696;28;20042;-78
2021/04/22 06:03:15;;;;;;;15.60;7.88;;;10.50;69.30;;;;;;6201301;28;20065;-77
2021/04/22 06:06:17;;;;;;;17.63;7.40;;;10.60;69.50;;;;;;6219554;28;20452;-78
2021/04/22 06:09:19;;;;;;;13.50;6.72;;;10.80;68.10;;;;;;6227195;28;20042;-78
2021/04/22 06:12:20;;;;;;;19.17;7.60;;;11.00;67.40;;;;;;6227962;28;20058;-78
2021/04/22 06:15:22;;;;;;;11.95;7.40;;;11.10;66.40;;;;;;6228746;28;20054;-77
2021/04/22 06:18:23;;;;;;;14.90;6.82;;;11.30;65.30;;;;;;6227518;28;20123;-78
2021/04/22 06:21:25;;;;;;;11.05;6.57;;;11.40;64.30;;;;;;6225983;28;20528;-78
2021/04/22 06:24:27;;;;;;;16.02;7.05;;;11.40;63.50;;;;;;6227134;28;20070;-78
2021/04/22 06:27:28;;;;;;;19.63;5.82;;;11.30;62.90;;;;;;6226129;28;20073;-78
2021/04/22 06:30:29;;;;;;;17.85;7.60;;;11.20;62.90;;;;;;6226916;28;20050;-78
2021/04/22 06:33:31;;;;;;;13.48;8.02;;;11.10;62.90;;;;;;6227571;28;20049;-78
2021/04/22 06:36:32;;;;;;;17.92;7.88;;;11.20;62.40;;;;;;6227343;28;20104;-78
2021/04/22 06:39:34;;;;;;;12.90;6.43;;;11.40;62.20;;;;;;6228493;28;20099;-77
2021/04/22 06:42:36;;;;;;;12.43;6.22;;;11.40;61.30;;;;;;6227436;28;20046;-76
2021/04/22 06:45:38;;;;;;;11.27;4.88;;;11.30;61.40;;;;;;6226216;28;20101;-78
2021/04/22 06:48:39;;;;;;;14.70;5.85;;;11.40;61.40;;;;;;6225820;28;20426;-77
2021/04/22 06:51:41;;;;;;;12.55;6.72;;;11.60;61.00;;;;;;6226366;28;20100;-78
2021/04/22 06:54:43;;;;;;;15.77;5.95;;;11.90;60.30;;;;;;6228403;28;20152;-78
2021/04/22 06:57:44;;;;;;;11.70;7.00;;;12.20;59.90;;;;;;6225905;28;20078;-77
2021/04/22 07:00:45;;;;;;;13.05;6.10;;;12.50;58.40;;;;;;6225990;28;20512;-78
2021/04/22 07:03:47;;;;;;;12.45;5.20;;;12.70;56.90;;;;;;6226533;28;20061;-77
2021/04/22 07:06:48;;;;;;;10.13;6.07;;;12.70;56.80;;;;;;6225944;28;20160;-78
2021/04/22 07:09:50;;;;;;;16.95;7.32;;;12.90;56.80;;;;;;6227019;28;20053;-77
2021/04/22 07:12:52;;;;;;;14.30;5.05;;;13.40;55.10;;;;;;6227305;28;20519;-78
2021/04/22 07:15:53;;;;;;;13.13;5.80;;;13.50;54.00;;;;;;6226484;28;20091;-77
2021/04/22 07:18:55;;;;;;;9.38;4.88;;;13.60;53.30;;;;;;6228526;28;20050;-78
2021/04/22 07:21:56;;;;;;;18.83;5.30;;;13.40;53.60;;;;;;6232140;28;20508;-77
2021/04/22 07:24:58;;;;;;;25.15;5.57;;;13.40;53.30;;;;;;6232998;28;20074;-78
2021/04/22 07:28:00;;;;;;;12.60;5.47;;;13.40;53.20;;;;;;6231620;28;20066;-77
2021/04/22 07:31:01;;;;;;;6.25;4.45;;;13.40;53.80;;;;;;6231551;28;20141;-77
2021/04/22 07:34:03;;;;;;;14.52;4.40;;;13.60;52.80;;;;;;6232175;28;20042;-79
2021/04/22 07:37:05;;;;;;;9.32;4.95;;;13.70;52.20;;;;;;6234209;28;20135;-78
2021/04/22 07:40:09;;;;;;;12.18;4.60;;;13.80;53.40;;;;;;6256268;28;20068;-76
2021/04/22 07:43:12;;;;;;;12.88;4.72;;;14.10;51.50;;;;;;6258053;28;20112;-77
2021/04/22 07:46:14;;;;;;;14.35;5.63;;;14.40;51.40;;;;;;6256485;28;20042;-76
2021/04/22 07:49:15;;;;;;;16.67;5.60;;;14.70;51.30;;;;;;6256167;28;20034;-76
2021/04/22 07:52:16;;;;;;;6.25;4.88;;;14.80;50.80;;;;;;6257091;28;20034;-76
2021/04/22 07:55:21;;;;;;;10.20;4.30;;;14.90;49.50;;;;;;6257157;28;20038;-77
2021/04/22 07:58:23;;;;;;;9.07;4.47;;;15.20;49.60;;;;;;6255355;28;20045;-75
2021/04/22 08:01:25;;;;;;;8.80;4.38;;;15.40;47.70;;;;;;6255408;28;20062;-76
2021/04/22 08:04:26;;;;;;;11.27;5.80;;;15.70;47.60;;;;;;6232217;28;20049;-77
2021/04/22 08:07:28;;;;;;;8.05;4.57;;;16.10;45.80;;;;;;6228918;28;20492;-77
2021/04/22 08:10:32;;;;;;;7.93;5.10;;;16.00;45.10;;;;;;6231847;28;20050;-78
2021/04/22 08:13:33;;;;;;;11.10;5.30;;;15.60;45.90;;;;;;6231296;28;20046;-78
2021/04/22 08:16:35;;;;;;;16.52;5.72;;;15.30;46.70;;;;;;6232523;28;20042;-78
2021/04/22 08:19:36;;;;;;;12.98;4.53;;;15.30;46.30;;;;;;6232582;28;20045;-77
2021/04/22 08:22:39;;;;;;;11.00;4.75;;;15.40;46.30;;;;;;6233870;28;20050;-77
2021/04/22 08:25:43;;;;;;;11.25;4.60;;;15.40;46.20;;;;;;6237371;28;20046;-76
2021/04/22 08:28:46;;;;;;;11.10;4.38;;;15.40;46.20;;;;;;6237227;28;20054;-78
2021/04/22 08:31:47;;;;;;;14.63;4.72;;;15.50;45.80;;;;;;6233133;28;20060;-78
2021/04/22 08:34:49;;;;;;;6.60;4.10;;;15.30;46.20;;;;;;6233057;28;20054;-78
2021/04/22 08:37:50;;;;;;;14.32;5.05;;;15.50;46.00;;;;;;6230082;28;20070;-77
2021/04/22 08:40:54;;;;;;;7.60;4.18;;;15.40;45.50;;;;;;6227690;28;20483;-77
2021/04/22 08:43:55;;;;;;;8.20;4.50;;;15.50;46.00;;;;;;6225115;28;20046;-77
2021/04/22 08:46:59;;;;;;;11.90;4.78;;;15.60;45.20;;;;;;6223263;28;20665;-76
2021/04/22 08:50:00;;;;;;;11.50;5.10;;;16.00;44.90;;;;;;6224439;28;20072;-77
2021/04/22 08:53:05;;;;;;;8.15;4.25;;;16.20;44.20;;;;;;6224471;28;20129;-77
2021/04/22 08:56:09;;;;;;;13.82;5.13;;;16.20;44.20;;;;;;6223576;28;20129;-76
2021/04/22 08:59:12;;;;;;;5.85;3.35;;;16.40;43.60;;;;;;6223871;28;20053;-77
2021/04/22 09:02:13;;;;;;;12.05;4.75;;;16.60;43.10;;;;;;6223319;28;20674;-77
2021/04/22 09:05:16;;;;;;;9.95;4.40;;;16.50;42.00;;;;;;6223260;28;20100;-77
2021/04/22 09:08:18;;;;;;;8.90;4.28;;;16.50;42.00;;;;;;6222863;28;20120;-77
2021/04/22 09:11:23;;;;;;;12.30;4.10;;;16.70;41.00;;;;;;6223725;28;20064;-76
2021/04/22 09:14:24;;;;;;;9.07;3.90;;;16.90;40.20;;;;;;6222209;28;20504;-77
2021/04/22 09:17:28;;;;;;;10.07;4.22;;;17.00;39.80;;;;;;6222570;28;20042;-76
2021/04/22 09:20:32;;;;;;;9.80;4.03;;;17.00;39.30;;;;;;6223651;28;20064;-77
2021/04/22 09:23:34;;;;;;;7.43;3.40;;;17.00;39.50;;;;;;6223985;28;20053;-77
2021/04/22 09:26:39;;;;;;;10.88;4.65;;;17.00;38.60;;;;;;6223602;28;20132;-77
2021/04/22 09:29:44;;;;;;;5.00;3.03;;;17.10;39.20;;;;;;6223291;28;20073;-76
2021/04/22 09:32:46;;;;;;;10.60;4.28;;;17.10;37.90;;;;;;6223314;28;20573;-76
2021/04/22 09:35:47;;;;;;;15.27;4.43;;;16.60;39.70;;;;;;6223119;28;20069;-76
2021/04/22 09:38:54;;;;;;;20.08;4.50;;;16.70;40.00;;;;;;6224183;28;20115;-76
2021/04/22 09:41:58;;;;;;;12.37;4.43;;;17.00;39.50;;;;;;6223347;28;20088;-76
2021/04/22 09:45:07;;;;;;;15.77;3.67;;;17.40;38.30;;;;;;6223400;28;20061;-76
2021/04/22 09:48:15;;;;;;;19.27;5.07;;;17.60;39.00;;;;;;6221957;28;20523;-77
2021/04/22 09:51:29;;;;;;;10.75;4.45;;;17.60;37.00;;;;;;6224302;28;20420;-76
2021/04/22 09:54:30;;;;;;;6.22;2.95;;;17.50;37.50;;;;;;6225663;28;20041;-76
2021/04/22 09:57:34;;;;;;;12.48;3.08;;;17.40;36.80;;;;;;6225142;28;20073;-76
2021/04/22 10:00:37;;;;;;;6.13;2.38;;;17.70;36.40;;;;;;6226227;28;20507;-76
2021/04/22 10:03:50;;;;;;;17.23;4.38;;;17.70;35.40;;;;;;6226281;28;20069;-76
2021/04/22 10:06:51;;;;;;;13.25;3.13;;;17.90;35.40;;;;;;6225854;28;20053;-76
2021/04/22 10:09:54;;;;;;;11.40;2.75;;;17.80;35.40;;;;;;6221852;28;20050;-76
2021/04/22 10:13:02;;;;;;;14.15;2.85;;;17.70;34.60;;;;;;6221966;28;20062;-77
2021/04/22 10:16:03;;;;;;;9.52;4.22;;;17.70;34.70;;;;;;6220956;28;20152;-77
2021/04/22 10:19:15;;;;;;;10.88;2.42;;;17.80;33.80;;;;;;6222338;28;20077;-76
2021/04/22 10:22:27;;;;;;;12.35;3.05;;;17.90;34.20;;;;;;6221636;28;20489;-78
2021/04/22 10:25:31;;;;;;;10.48;2.67;;;18.00;33.10;;;;;;6222052;28;20054;-76
2021/04/22 10:28:33;;;;;;;7.20;2.72;;;18.10;32.50;;;;;;6221019;28;20045;-77
2021/04/22 10:31:34;;;;;;;7.10;3.15;;;18.00;32.30;;;;;;6220984;28;20405;-76
2021/04/22 10:34:37;;;;;;;4.22;2.03;;;17.90;33.10;;;;;;6222207;28;20423;-76
2021/04/22 10:37:41;;;;;;;9.48;2.83;;;18.10;33.10;;;;;;6220482;28;20508;-76
2021/04/22 10:40:44;;;;;;;16.45;4.00;;;18.30;32.80;;;;;;6220991;28;20053;-77
2021/04/22 10:43:47;;;;;;;6.50;2.50;;;18.60;32.20;;;;;;6221500;28;20072;-76
2021/04/22 10:46:49;;;;;;;6.82;2.67;;;18.60;31.60;;;;;;6220779;28;20133;-76
2021/04/22 10:49:52;;;;;;;13.30;3.03;;;18.60;31.60;;;;;;6221087;28;20141;-77
2021/04/22 10:52:54;;;;;;;8.00;2.88;;;18.50;32.00;;;;;;6221212;28;20053;-76
2021/04/22 10:55:56;;;;;;;4.47;2.58;;;18.50;31.50;;;;;;6225137;28;20077;-76
2021/04/22 10:58:58;;;;;;;10.43;3.80;;;18.20;30.80;;;;;;6226440;28;20132;-76
2021/04/22 11:02:14;;;;;;;7.25;2.97;;;17.90;32.00;;;;;;6225710;28;20535;-76
2021/04/22 11:05:21;;;;;;;10.50;3.47;;;17.90;32.30;;;;;;6226074;28;20050;-76
2021/04/22 11:08:31;;;;;;;8.80;2.85;;;18.10;32.20;;;;;;6224774;28;20095;-76
2021/04/22 11:11:34;;;;;;;8.20;2.40;;;18.50;31.80;;;;;;6225393;28;20061;-76
2021/04/22 11:14:46;;;;;;;6.45;2.97;;;18.60;31.30;;;;;;6222048;28;20496;-77
2021/04/22 11:17:47;;;;;;;10.77;3.38;;;18.80;30.80;;;;;;6225359;28;20042;-77
2021/04/22 11:20:49;;;;;;;9.68;3.25;;;19.00;31.30;;;;;;6226172;28;20076;-77
2021/04/22 11:23:51;;;;;;;7.63;2.78;;;19.10;31.00;;;;;;6225649;28;20074;-77
2021/04/22 11:26:59;;;;;;;8.63;3.55;;;18.90;29.60;;;;;;6229239;28;20077;-77
2021/04/22 11:30:05;;;;;;;5.72;2.83;;;18.60;29.80;;;;;;6224938;28;20137;-77
2021/04/22 11:33:07;;;;;;;12.45;3.42;;;18.60;30.10;;;;;;6225406;28;20046;-77
2021/04/22 11:36:15;;;;;;;13.65;3.22;;;18.70;29.50;;;;;;6224314;28;20092;-77
2021/04/22 11:39:17;;;;;;;11.50;3.67;;;18.20;30.00;;;;;;6225886;28;20046;-77
2021/04/22 11:42:20;;;;;;;10.75;3.15;;;18.20;31.20;;;;;;6225442;28;20463;-77
2021/04/22 11:45:24;;;;;;;7.00;2.78;;;18.40;29.60;;;;;;6224819;28;20104;-77
2021/04/22 11:48:37;;;;;;;8.77;2.70;;;18.60;29.20;;;;;;6224855;28;20133;-77
2021/04/22 11:51:42;;;;;;;4.25;2.15;;;18.70;29.10;;;;;;6225287;28;20049;-77
2021/04/22 11:54:43;;;;;;;7.25;3.05;;;18.70;28.40;;;;;;6225067;28;20050;-77
2021/04/22 11:57:56;;;;;;;4.70;2.30;;;18.90;28.30;;;;;;6223552;28;20543;-76
2021/04/22 12:01:00;;;;;;;12.55;3.05;;;19.00;27.10;;;;;;6224453;28;20128;-77
2021/04/22 12:04:02;;;;;;;8.45;4.65;;;19.00;27.80;;;;;;6225429;28;20037;-77
2021/04/22 12:07:06;;;;;;;5.63;2.75;;;19.10;27.80;;;;;;6226548;28;20050;-75
2021/04/22 12:10:11;;;;;;;7.07;3.72;;;19.00;27.80;;;;;;6225968;28;20125;-75
2021/04/22 12:13:14;;;;;;;10.23;3.33;;;18.70;27.10;;;;;;6224424;28;20050;-76
2021/04/22 12:16:17;;;;;;;5.53;3.63;;;18.70;27.50;;;;;;6223258;28;20038;-76
2021/04/22 12:19:24;;;;;;;7.45;2.72;;;18.90;27.60;;;;;;6223897;28;20159;-76
2021/04/22 12:22:35;;;;;;;9.10;2.35;;;19.00;27.20;;;;;;6224560;28;20432;-76
2021/04/22 12:25:36;;;;;;;12.20;3.60;;;19.20;27.10;;;;;;6223827;28;20104;-77
2021/04/22 12:28:38;;;;;;;7.50;2.35;;;19.30;25.90;;;;;;6222658;28;20115;-77
2021/04/22 12:31:42;;;;;;;9.27;2.60;;;19.40;26.90;;;;;;6224153;28;20050;-77
2021/04/22 12:34:44;;;;;;;14.52;3.67;;;19.60;26.90;;;;;;6224733;28;20104;-76
2021/04/22 12:37:45;;;;;;;13.35;4.50;;;19.70;26.30;;;;;;6223185;28;20117;-77
2021/04/22 12:40:56;;;;;;;8.77;3.63;;;19.40;25.80;;;;;;6223854;28;20049;-77
2021/04/22 12:43:58;;;;;;;13.20;4.90;;;19.00;26.60;;;;;;6223839;28;20049;-76
2021/04/22 12:47:03;;;;;;;10.98;3.22;;;19.10;26.20;;;;;;6223379;28;20577;-76
2021/04/22 12:50:07;;;;;;;13.85;3.35;;;18.90;27.00;;;;;;6223082;28;20787;-76
2021/04/22 12:53:13;;;;;;;9.18;5.22;;;18.60;27.40;;;;;;6223827;28;20128;-76
2021/04/22 12:56:16;;;;;;;13.32;2.85;;;18.70;27.70;;;;;;6223534;28;20046;-77
2021/04/22 12:59:19;;;;;;;5.68;2.67;;;18.80;26.50;;;;;;6223664;28;20506;-77
2021/04/22 13:02:21;;;;;;;12.75;3.72;;;19.00;25.70;;;;;;6223569;28;20073;-78
2021/04/22 13:05:23;;;;;;;12.88;3.60;;;19.10;26.20;;;;;;6223553;28;20121;-76
2021/04/22 13:08:25;;;;;;;7.60;3.33;;;18.80;26.80;;;;;;6222484;28;20073;-76
2021/04/22 13:11:28;;;;;;;6.65;3.10;;;18.40;27.30;;;;;;6223517;28;20092;-76
2021/04/22 13:14:30;;;;;;;6.97;3.35;;;18.10;25.40;;;;;;6223673;28;20137;-77
2021/04/22 13:17:32;;;;;;;10.77;3.20;;;18.00;26.20;;;;;;6222053;28;20058;-76
2021/04/22 13:20:43;;;;;;;5.57;2.65;;;17.80;26.20;;;;;;6222486;28;20444;-76
2021/04/22 13:23:45;;;;;;;6.15;2.45;;;17.90;25.90;;;;;;6222600;28;20097;-75
2021/04/22 13:26:54;;;;;;;5.70;2.42;;;18.20;26.40;;;;;;6222739;28;20088;-76
2021/04/22 13:29:57;;;;;;;6.63;3.17;;;18.50;26.50;;;;;;6222056;28;20076;-76
2021/04/22 13:33:03;;;;;;;9.07;3.28;;;18.50;25.60;;;;;;6223123;28;20048;-76
2021/04/22 13:36:08;;;;;;;9.30;3.78;;;18.50;25.60;;;;;;6222433;28;20050;-76
2021/04/22 13:39:10;;;;;;;6.38;3.00;;;18.70;25.10;;;;;;6222286;28;20050;-76
2021/04/22 13:42:13;;;;;;;6.65;2.95;;;18.70;25.30;;;;;;6210078;28;20096;-76
2021/04/22 13:45:16;;;;;;;10.55;3.67;;;18.70;24.50;;;;;;6220581;28;20108;-76
2021/04/22 13:48:21;;;;;;;7.07;3.00;;;18.60;24.40;;;;;;6220995;28;20151;-77
2021/04/22 13:51:25;;;;;;;6.78;3.25;;;18.60;24.30;;;;;;6222264;28;20092;-76
2021/04/22 13:54:31;;;;;;;7.10;2.42;;;18.70;24.70;;;;;;6221588;28;20085;-76
2021/04/22 13:57:40;;;;;;;5.07;2.78;;;18.80;24.70;;;;;;6220478;28;20140;-77
2021/04/22 14:00:42;;;;;;;5.45;3.00;;;18.90;25.10;;;;;;6220472;28;20706;-76
2021/04/22 14:03:47;;;;;;;6.35;2.75;;;19.00;24.40;;;;;;6220730;28;20089;-76
2021/04/22 14:06:51;;;;;;;5.63;2.80;;;19.00;24.50;;;;;;6221257;28;20493;-76
2021/04/22 14:09:54;;;;;;;10.45;3.10;;;19.00;25.30;;;;;;6220573;28;20136;-76
2021/04/22 14:12:56;;;;;;;8.35;2.78;;;19.10;26.30;;;;;;6221261;28;20046;-76
2021/04/22 14:15:57;;;;;;;13.98;3.65;;;19.30;25.20;;;;;;6220528;28;20073;-76
2021/04/22 14:19:00;;;;;;;6.07;2.97;;;19.30;25.50;;;;;;6220762;28;20181;-76
2021/04/22 14:22:03;;;;;;;6.95;2.33;;;19.20;23.30;;;;;;6221162;28;20096;-76
2021/04/22 14:25:06;;;;;;;8.45;3.00;;;19.10;24.70;;;;;;6221258;28;20095;-76
2021/04/22 14:28:07;;;;;;;4.75;2.75;;;19.10;24.20;;;;;;6221446;28;20059;-77
2021/04/22 14:31:10;;;;;;;5.75;2.22;;;19.10;24.60;;;;;;6220630;28;20060;-76
2021/04/22 14:34:13;;;;;;;5.50;2.72;;;19.00;23.20;;;;;;6219674;28;20088;-76
2021/04/22 14:37:14;;;;;;;5.05;2.42;;;19.10;24.10;;;;;;6220096;28;20548;-77
2021/04/22 14:40:16;;;;;;;5.00;2.50;;;18.70;24.60;;;;;;6220469;28;20050;-76
2021/04/22 14:43:17;;;;;;;9.55;3.25;;;18.50;25.30;;;;;;6215233;28;20181;-77
2021/04/22 14:46:18;;;;;;;9.55;3.42;;;18.70;25.60;;;;;;6195875;28;20082;-77
2021/04/22 14:49:21;;;;;;;7.28;2.40;;;18.90;25.40;;;;;;6195442;28;20156;-77
2021/04/22 14:52:23;;;;;;;12.68;2.55;;;19.20;23.80;;;;;;6196544;28;20084;-77
2021/04/22 14:55:25;;;;;;;6.78;2.75;;;19.20;24.80;;;;;;6195511;28;20485;-76
2021/04/22 14:58:26;;;;;;;8.30;2.50;;;19.10;24.50;;;;;;6195703;28;20109;-76
2021/04/22 15:01:27;;;;;;;11.80;3.38;;;18.90;24.30;;;;;;6198053;28;20053;-77
2021/04/22 15:04:29;;;;;;;5.80;2.45;;;18.60;26.10;;;;;;6198938;28;20481;-77
2021/04/22 15:07:31;;;;;;;5.88;2.58;;;18.60;25.50;;;;;;6198820;28;20085;-77
2021/04/22 15:10:33;;;;;;;7.75;2.45;;;18.50;24.30;;;;;;6198567;28;20104;-77
2021/04/22 15:13:35;;;;;;;4.75;2.78;;;18.30;24.40;;;;;;6208026;28;20045;-78
2021/04/22 15:16:37;;;;;;;9.35;3.78;;;18.20;24.40;;;;;;6222526;28;20045;-77
2021/04/22 15:19:40;;;;;;;7.05;2.90;;;18.10;24.50;;;;;;6222726;28;20575;-77
2021/04/22 15:22:42;;;;;;;4.90;2.53;;;17.70;26.20;;;;;;6222565;28;20166;-77
2021/04/22 15:25:45;;;;;;;10.35;3.92;;;17.60;27.30;;;;;;6221807;28;20053;-77
2021/04/22 15:28:46;;;;;;;12.00;3.92;;;17.80;27.10;;;;;;6220176;28;20050;-77
2021/04/22 15:31:47;;;;;;;7.20;2.70;;;18.00;26.70;;;;;;6222839;28;20069;-77
2021/04/22 15:34:49;;;;;;;6.50;2.53;;;18.10;27.30;;;;;;6222056;28;20104;-77
2021/04/22 15:37:53;;;;;;;7.78;3.25;;;18.10;26.40;;;;;;6221677;28;20076;-78
2021/04/22 15:40:55;;;;;;;7.63;3.67;;;18.00;26.80;;;;;;6224967;28;20471;-78